Time;durP1;ratioP1;P1;durP2;ratioP2;P2;SDS_P1;SDS_P2;PMS_P1;PMS_P2;Temp;Humidity;BMP_temperature;BMP_pressure;BME280_temperature;BME280_humidity;BME280_pressure;Samples;Min_cycle;Max_cycle;Signal;HPM_P1;HPM_P2
2023/05/05 00:01:19;;;;;;;18.50;12.20;;;13.60;22.10;;;;;;5062817;28;20476;-67
2023/05/05 00:03:46;;;;;;;17.20;12.50;;;13.60;22.00;;;;;;5056809;28;20478;-66
2023/05/05 00:06:13;;;;;;;19.33;12.13;;;13.60;21.90;;;;;;5059828;28;20841;-67
2023/05/05 00:08:40;;;;;;;19.33;11.83;;;13.60;22.00;;;;;;5062725;28;20457;-67
2023/05/05 00:11:06;;;;;;;19.57;12.20;;;13.60;22.50;;;;;;5060042;28;20464;-67
2023/05/05 00:13:33;;;;;;;15.07;11.63;;;13.60;22.70;;;;;;5062196;28;20472;-67
2023/05/05 00:16:00;;;;;;;15.97;12.30;;;13.60;22.80;;;;;;5061268;28;20461;-67
2023/05/05 00:18:28;;;;;;;20.90;11.60;;;13.50;22.90;;;;;;5060121;28;20466;-68
2023/05/05 00:20:55;;;;;;;15.60;12.07;;;13.50;23.00;;;;;;5061413;28;20457;-68
2023/05/05 00:23:21;;;;;;;18.80;12.87;;;13.50;23.20;;;;;;5060092;28;21032;-68
2023/05/05 00:25:48;;;;;;;14.17;10.50;;;13.50;23.40;;;;;;5059847;28;20466;-67
2023/05/05 00:28:15;;;;;;;18.77;11.93;;;13.40;23.40;;;;;;5060418;28;21260;-67
2023/05/05 00:30:41;;;;;;;17.87;12.40;;;13.40;23.50;;;;;;5059451;28;20470;-67
2023/05/05 00:33:08;;;;;;;16.33;12.00;;;13.40;23.60;;;;;;5063505;28;20449;-67
2023/05/05 00:35:37;;;;;;;16.17;11.33;;;13.40;24.30;;;;;;5060787;28;21013;-68
2023/05/05 00:38:03;;;;;;;20.07;13.67;;;13.40;24.00;;;;;;5065774;28;20485;-67
2023/05/05 00:40:30;;;;;;;17.60;12.03;;;13.40;23.90;;;;;;5068223;28;20837;-67
2023/05/05 00:42:58;;;;;;;17.70;12.77;;;13.40;23.90;;;;;;5080840;28;20529;-67
2023/05/05 00:45:25;;;;;;;15.70;11.67;;;13.40;24.30;;;;;;5072395;28;20478;-68
2023/05/05 00:47:54;;;;;;;15.67;11.73;;;13.40;24.20;;;;;;5063279;28;20490;-66
2023/05/05 00:50:23;;;;;;;16.70;12.17;;;13.30;24.70;;;;;;5058389;28;20473;-66
2023/05/05 00:52:54;;;;;;;16.67;12.20;;;13.30;25.00;;;;;;5063953;28;20534;-67
2023/05/05 00:55:21;;;;;;;16.37;10.90;;;13.20;25.20;;;;;;5062314;28;20523;-67
2023/05/05 00:57:49;;;;;;;17.40;11.53;;;13.20;25.30;;;;;;5064368;28;20449;-66
2023/05/05 01:00:16;;;;;;;15.67;11.43;;;13.10;25.60;;;;;;5060589;28;20453;-66
2023/05/05 01:02:44;;;;;;;19.10;13.03;;;13.10;25.80;;;;;;5055533;28;21036;-67
2023/05/05 01:05:12;;;;;;;15.77;12.50;;;13.00;26.40;;;;;;5063439;28;20556;-66
2023/05/05 01:07:49;;;;;;;21.80;13.20;;;12.90;27.30;;;;;;5064833;28;20476;-66
2023/05/05 01:10:27;;;;;;;16.93;11.93;;;12.90;27.60;;;;;;5060018;28;20461;-65
2023/05/05 01:13:05;;;;;;;18.07;12.90;;;12.80;28.00;;;;;;5064501;28;20450;-66
2023/05/05 01:15:34;;;;;;;18.10;12.50;;;12.80;28.20;;;;;;5060287;28;20496;-66
2023/05/05 01:18:07;;;;;;;16.50;12.60;;;12.70;28.40;;;;;;5062494;28;20453;-66
2023/05/05 01:20:43;;;;;;;19.27;12.87;;;12.70;28.40;;;;;;5063840;28;20454;-67
2023/05/05 01:23:17;;;;;;;19.63;13.83;;;12.60;28.60;;;;;;5063121;28;20429;-68
2023/05/05 01:26:12;;;;;;;22.93;13.57;;;12.60;28.70;;;;;;5069835;28;20473;-67
2023/05/05 01:29:00;;;;;;;18.70;12.73;;;12.50;29.30;;;;;;5065513;28;20482;-67
2023/05/05 01:31:50;;;;;;;17.87;11.60;;;12.60;29.40;;;;;;5063082;28;20469;-67
2023/05/05 01:34:22;;;;;;;16.93;12.50;;;12.50;29.80;;;;;;5059701;28;20473;-68
2023/05/05 01:36:57;;;;;;;17.13;12.03;;;12.50;29.60;;;;;;5061412;28;20465;-67
2023/05/05 01:39:30;;;;;;;24.90;11.83;;;12.50;29.40;;;;;;5060392;28;20452;-67
2023/05/05 01:42:02;;;;;;;17.90;12.80;;;12.50;29.40;;;;;;5063334;28;20450;-67
2023/05/05 01:44:30;;;;;;;17.80;11.43;;;12.50;30.10;;;;;;5060726;28;20484;-68
2023/05/05 01:47:00;;;;;;;17.80;12.87;;;12.50;29.70;;;;;;5059123;28;20473;-68
2023/05/05 01:49:28;;;;;;;14.43;11.27;;;12.50;29.40;;;;;;5062234;28;20488;-67
2023/05/05 01:51:56;;;;;;;15.37;12.60;;;12.50;29.80;;;;;;5063430;28;20468;-68
2023/05/05 01:54:24;;;;;;;20.63;12.00;;;12.50;29.90;;;;;;5062701;28;21001;-67
2023/05/05 01:56:54;;;;;;;16.50;11.70;;;12.50;30.30;;;;;;5061637;28;20456;-67
2023/05/05 01:59:21;;;;;;;16.33;12.83;;;12.50;30.20;;;;;;5066746;28;20568;-66
2023/05/05 02:01:49;;;;;;;17.43;12.80;;;12.50;30.50;;;;;;5055380;28;20473;-67
2023/05/05 02:04:21;;;;;;;19.97;12.83;;;12.50;30.60;;;;;;5059487;28;20484;-66
2023/05/05 02:06:51;;;;;;;16.90;12.43;;;12.50;30.60;;;;;;5061574;28;20548;-67
2023/05/05 02:09:20;;;;;;;20.73;13.57;;;12.50;31.00;;;;;;5057353;28;20552;-67
2023/05/05 02:11:47;;;;;;;20.50;12.70;;;12.50;30.80;;;;;;5056705;28;20460;-67
2023/05/05 02:14:15;;;;;;;21.50;14.10;;;12.50;31.10;;;;;;5061847;28;20484;-67
2023/05/05 02:16:43;;;;;;;17.53;13.10;;;12.50;31.30;;;;;;5064839;28;20969;-68
2023/05/05 02:19:11;;;;;;;17.93;13.20;;;12.50;31.20;;;;;;5062401;28;20465;-68
2023/05/05 02:21:39;;;;;;;16.67;13.43;;;12.50;31.30;;;;;;5063643;28;20982;-68
2023/05/05 02:24:06;;;;;;;23.43;14.33;;;12.50;31.90;;;;;;5059965;28;20477;-67
2023/05/05 02:26:37;;;;;;;37.43;14.83;;;12.50;32.10;;;;;;5061378;28;20457;-67
2023/05/05 02:29:07;;;;;;;19.03;12.90;;;12.50;32.10;;;;;;5058965;28;20503;-67
2023/05/05 02:31:38;;;;;;;20.03;13.20;;;12.40;32.00;;;;;;5056675;28;20469;-67
2023/05/05 02:34:07;;;;;;;20.40;13.97;;;12.50;31.80;;;;;;5061130;28;20535;-68
2023/05/05 02:36:40;;;;;;;19.80;13.90;;;12.40;32.10;;;;;;5061823;28;20914;-66
2023/05/05 02:39:12;;;;;;;16.40;13.20;;;12.40;32.10;;;;;;5060319;28;20453;-68
2023/05/05 02:41:40;;;;;;;17.17;13.07;;;12.40;32.00;;;;;;5058681;28;20511;-67
2023/05/05 02:44:41;;;;;;;18.03;13.13;;;12.40;32.10;;;;;;5061575;28;20484;-67
2023/05/05 02:47:08;;;;;;;17.70;12.80;;;12.30;32.30;;;;;;5065375;28;20488;-67
2023/05/05 02:49:35;;;;;;;17.40;12.87;;;12.40;31.70;;;;;;5068753;28;20522;-66
2023/05/05 02:52:03;;;;;;;17.07;13.50;;;12.30;31.90;;;;;;5059980;28;20470;-68
2023/05/05 02:54:31;;;;;;;17.67;13.10;;;12.30;31.80;;;;;;5065757;28;20500;-67
2023/05/05 02:56:59;;;;;;;21.40;13.17;;;12.20;31.90;;;;;;5066098;28;20461;-68
2023/05/05 02:59:33;;;;;;;21.10;14.57;;;12.20;32.10;;;;;;5065603;28;20448;-68
2023/05/05 03:02:10;;;;;;;19.07;13.70;;;12.10;32.30;;;;;;5063721;28;21029;-67
2023/05/05 03:04:40;;;;;;;19.63;14.13;;;12.10;32.20;;;;;;5065316;28;20568;-66
2023/05/05 03:07:13;;;;;;;16.50;13.10;;;12.10;32.50;;;;;;5067424;28;20472;-65
2023/05/05 03:09:44;;;;;;;18.83;13.80;;;12.10;32.30;;;;;;5060892;28;20453;-67
2023/05/05 03:12:16;;;;;;;19.73;13.80;;;12.10;32.30;;;;;;5064867;28;20449;-67
2023/05/05 03:14:45;;;;;;;19.00;13.10;;;12.10;32.60;;;;;;5064454;28;20484;-67
2023/05/05 03:17:13;;;;;;;21.13;14.80;;;12.00;32.40;;;;;;5062900;28;20504;-67
2023/05/05 03:19:42;;;;;;;18.20;14.13;;;12.00;33.30;;;;;;5067832;28;20463;-68
2023/05/05 03:22:10;;;;;;;18.10;13.70;;;12.00;32.80;;;;;;5065448;28;20465;-67
2023/05/05 03:24:37;;;;;;;20.10;13.60;;;12.00;32.80;;;;;;5060117;28;20517;-68
2023/05/05 03:27:04;;;;;;;20.60;14.77;;;12.00;33.00;;;;;;5060146;28;20465;-67
2023/05/05 03:29:30;;;;;;;24.70;16.87;;;11.90;34.00;;;;;;5064459;28;20480;-67
2023/05/05 03:31:59;;;;;;;21.13;15.47;;;12.00;34.50;;;;;;5059398;28;20474;-67
2023/05/05 03:34:26;;;;;;;20.10;15.00;;;12.00;34.70;;;;;;5062232;28;20470;-67
2023/05/05 03:36:53;;;;;;;21.70;16.60;;;11.90;35.10;;;;;;5060496;28;20461;-67
2023/05/05 03:39:21;;;;;;;21.83;15.80;;;11.90;35.20;;;;;;5061304;28;20458;-67
2023/05/05 03:41:48;;;;;;;28.03;15.97;;;11.90;34.90;;;;;;5065332;28;20466;-67
2023/05/05 03:44:14;;;;;;;19.83;14.10;;;11.90;35.40;;;;;;5079939;28;20477;-64
2023/05/05 03:46:41;;;;;;;19.90;16.33;;;11.90;35.70;;;;;;5077879;28;20458;-64
2023/05/05 03:49:08;;;;;;;25.33;18.40;;;11.90;36.10;;;;;;5061838;28;20474;-64
2023/05/05 03:51:35;;;;;;;24.30;16.57;;;12.00;35.90;;;;;;5063813;28;20457;-66
2023/05/05 03:54:02;;;;;;;21.03;15.70;;;12.00;35.80;;;;;;5064299;28;20481;-68
2023/05/05 03:56:30;;;;;;;22.80;16.77;;;12.00;35.80;;;;;;5065695;28;20465;-66
2023/05/05 03:58:57;;;;;;;22.07;16.53;;;12.00;35.60;;;;;;5066033;28;20519;-66
2023/05/05 04:01:23;;;;;;;25.23;18.20;;;12.00;35.60;;;;;;5063313;28;20474;-67
2023/05/05 04:03:50;;;;;;;23.07;17.17;;;11.90;35.60;;;;;;5061680;28;20781;-66
2023/05/05 04:06:17;;;;;;;24.93;18.77;;;11.90;35.80;;;;;;5063068;28;20542;-67
2023/05/05 04:08:44;;;;;;;22.43;17.97;;;11.90;36.00;;;;;;5065700;28;20481;-68
2023/05/05 04:11:11;;;;;;;28.20;18.97;;;11.90;36.20;;;;;;5073749;23;20456;-67
2023/05/05 04:13:39;;;;;;;27.27;16.60;;;11.90;36.40;;;;;;5083329;28;20885;-66
2023/05/05 04:16:07;;;;;;;21.77;16.30;;;12.00;36.10;;;;;;5086830;28;20460;-66
2023/05/05 04:18:34;;;;;;;21.90;16.53;;;12.00;35.80;;;;;;5084693;28;20907;-66
2023/05/05 04:21:01;;;;;;;26.00;18.87;;;12.00;35.70;;;;;;5085241;28;20966;-67
2023/05/05 04:23:28;;;;;;;25.93;18.10;;;12.00;35.60;;;;;;5082721;28;20460;-66
2023/05/05 04:25:54;;;;;;;22.20;16.17;;;12.10;35.60;;;;;;5090196;28;20459;-66
2023/05/05 04:28:21;;;;;;;21.83;17.80;;;12.10;35.50;;;;;;5087241;28;20996;-66
2023/05/05 04:30:49;;;;;;;21.23;16.97;;;12.10;35.90;;;;;;5086604;28;20468;-66
2023/05/05 04:33:16;;;;;;;20.70;15.70;;;12.20;36.00;;;;;;5085037;28;21027;-67
2023/05/05 04:35:43;;;;;;;25.67;17.93;;;12.20;36.00;;;;;;5085713;28;20456;-67
2023/05/05 04:38:09;;;;;;;21.60;17.10;;;12.30;35.90;;;;;;5085918;28;20460;-67
2023/05/05 04:40:39;;;;;;;20.90;17.00;;;12.40;36.10;;;;;;5088616;28;20471;-66
2023/05/05 04:43:06;;;;;;;21.47;15.90;;;12.40;36.10;;;;;;5090633;28;20868;-67
2023/05/05 04:45:33;;;;;;;21.47;16.30;;;12.50;36.20;;;;;;5090630;28;20460;-67
2023/05/05 04:48:01;;;;;;;21.97;16.80;;;12.60;36.10;;;;;;5091387;28;21200;-68
2023/05/05 04:50:27;;;;;;;20.93;16.13;;;12.70;35.80;;;;;;5085983;28;20979;-67
2023/05/05 04:52:55;;;;;;;24.70;17.33;;;12.80;35.70;;;;;;5081207;28;20488;-69
2023/05/05 04:55:21;;;;;;;20.03;16.90;;;12.90;35.80;;;;;;5074591;28;20456;-70
2023/05/05 04:57:48;;;;;;;21.27;16.03;;;13.00;35.70;;;;;;5082374;28;21004;-68
2023/05/05 05:00:15;;;;;;;18.17;14.63;;;13.20;35.50;;;;;;5078148;28;20480;-68
2023/05/05 05:02:42;;;;;;;20.00;16.03;;;13.50;35.10;;;;;;5077580;28;20601;-69
2023/05/05 05:05:10;;;;;;;20.47;15.97;;;13.70;34.50;;;;;;5078707;28;20480;-71
2023/05/05 05:07:37;;;;;;;21.07;15.50;;;14.50;33.30;;;;;;5083471;28;20464;-69
2023/05/05 05:10:04;;;;;;;20.23;14.03;;;15.80;29.50;;;;;;5082441;28;20495;-68
2023/05/05 05:12:31;;;;;;;19.43;13.40;;;17.20;24.50;;;;;;5085272;28;20492;-69
2023/05/05 05:14:57;;;;;;;16.20;13.53;;;18.40;20.10;;;;;;5084953;28;20471;-70
2023/05/05 05:17:25;;;;;;;15.40;13.20;;;19.60;17.20;;;;;;5080671;28;20460;-68
2023/05/05 05:19:53;;;;;;;17.07;13.50;;;20.70;14.40;;;;;;5081585;28;20463;-68
2023/05/05 05:22:21;;;;;;;18.30;13.00;;;21.70;11.60;;;;;;5086388;28;20547;-69
2023/05/05 05:24:47;;;;;;;15.40;12.70;;;22.60;9.50;;;;;;5085373;28;20844;-68
2023/05/05 05:27:14;;;;;;;13.03;10.87;;;23.60;7.70;;;;;;5086927;28;20784;-68
2023/05/05 05:29:42;;;;;;;18.53;11.93;;;24.50;6.10;;;;;;5086702;28;20495;-68
2023/05/05 05:32:09;;;;;;;13.67;11.67;;;25.40;4.50;;;;;;5084792;28;20548;-69
2023/05/05 05:34:35;;;;;;;12.87;10.93;;;26.30;2.60;;;;;;5082713;28;20836;-70
2023/05/05 05:37:02;;;;;;;12.53;10.87;;;27.10;1.50;;;;;;5087151;28;20471;-69
2023/05/05 05:39:30;;;;;;;13.10;10.37;;;27.80;1.00;;;;;;5085329;28;20948;-69
2023/05/05 05:41:57;;;;;;;14.90;11.80;;;28.20;1.00;;;;;;5082296;28;20483;-68
2023/05/05 05:44:23;;;;;;;13.20;10.97;;;27.60;1.00;;;;;;5077951;28;20830;-64
2023/05/05 05:46:50;;;;;;;13.70;10.90;;;27.10;1.00;;;;;;5080391;28;20460;-71
2023/05/05 05:49:17;;;;;;;12.70;10.63;;;26.70;1.00;;;;;;5083852;28;20828;-69
2023/05/05 05:51:43;;;;;;;15.63;10.40;;;27.60;1.00;;;;;;5085942;22;20500;-66
2023/05/05 05:54:10;;;;;;;16.37;11.37;;;28.20;1.00;;;;;;5057430;28;20976;-66
2023/05/05 05:56:38;;;;;;;12.03;10.10;;;27.50;1.00;;;;;;5065594;28;20556;-66
2023/05/05 05:59:06;;;;;;;11.77;9.37;;;28.00;1.00;;;;;;5061455;28;20457;-66
2023/05/05 06:01:34;;;;;;;11.20;9.90;;;29.10;1.00;;;;;;5064383;28;20485;-66
2023/05/05 06:04:00;;;;;;;13.60;9.90;;;30.20;1.00;;;;;;5062274;28;20805;-66
2023/05/05 06:06:27;;;;;;;10.70;9.03;;;31.00;1.00;;;;;;5070896;28;20819;-66
2023/05/05 06:08:54;;;;;;;10.60;8.13;;;31.90;1.00;;;;;;5061974;28;20897;-66
2023/05/05 06:11:21;;;;;;;11.57;9.50;;;32.50;1.00;;;;;;5066357;28;20476;-68
2023/05/05 06:13:49;;;;;;;12.50;8.93;;;33.10;1.00;;;;;;5063741;28;20490;-66
2023/05/05 06:16:15;;;;;;;11.27;9.50;;;33.50;1.00;;;;;;5064090;28;20493;-66
2023/05/05 06:18:42;;;;;;;10.00;9.00;;;34.00;1.00;;;;;;5076114;28;20456;-66
2023/05/05 06:21:09;;;;;;;10.73;8.60;;;34.60;1.00;;;;;;5061474;28;20468;-66
2023/05/05 06:23:36;;;;;;;11.67;10.03;;;34.80;1.00;;;;;;5065955;28;20920;-66
2023/05/05 06:26:02;;;;;;;11.17;9.03;;;33.60;1.00;;;;;;5067493;28;20604;-67
2023/05/05 06:28:29;;;;;;;12.30;9.33;;;32.30;1.00;;;;;;5077287;28;20467;-66
2023/05/05 06:30:57;;;;;;;9.63;8.73;;;30.80;1.00;;;;;;5069625;28;20497;-66
2023/05/05 06:33:24;;;;;;;12.53;9.40;;;29.40;1.00;;;;;;5074983;28;20974;-65
2023/05/05 06:35:51;;;;;;;12.30;9.53;;;29.10;1.00;;;;;;5075710;28;20464;-65
2023/05/05 06:38:18;;;;;;;9.30;8.30;;;28.70;1.00;;;;;;5067346;28;20469;-64
2023/05/05 06:40:48;;;;;;;11.30;10.00;;;28.00;1.00;;;;;;5069627;28;21012;-65
2023/05/05 06:43:15;;;;;;;11.10;8.87;;;27.40;1.00;;;;;;5069948;28;20512;-65
2023/05/05 06:45:41;;;;;;;11.40;8.90;;;27.20;1.80;;;;;;5069098;28;20487;-65
2023/05/05 06:48:09;;;;;;;10.80;8.30;;;28.20;1.00;;;;;;5066596;28;20856;-67
2023/05/05 06:50:36;;;;;;;10.50;8.97;;;30.10;1.00;;;;;;5066714;28;20484;-65
2023/05/05 06:53:03;;;;;;;12.73;8.47;;;32.00;1.00;;;;;;5065822;28;20496;-65
2023/05/05 06:55:30;;;;;;;12.57;7.90;;;33.60;1.00;;;;;;5062497;28;20466;-65
2023/05/05 06:57:57;;;;;;;11.60;7.73;;;35.10;1.00;;;;;;5064024;28;20553;-64
2023/05/05 07:00:24;;;;;;;9.57;7.63;;;36.40;1.00;;;;;;5065206;28;20483;-64
2023/05/05 07:02:51;;;;;;;10.13;7.13;;;37.10;1.00;;;;;;5068399;28;20481;-65
2023/05/05 07:05:19;;;;;;;8.90;6.70;;;37.60;1.00;;;;;;5066117;28;20461;-63
2023/05/05 07:07:52;;;;;;;7.77;6.23;;;38.00;1.00;;;;;;5060162;28;20496;-64
2023/05/05 07:10:19;;;;;;;8.97;6.73;;;37.90;1.00;;;;;;5062647;28;20531;-64
2023/05/05 07:12:46;;;;;;;9.70;6.63;;;37.40;1.00;;;;;;5064346;28;20488;-65
2023/05/05 07:15:13;;;;;;;8.80;7.90;;;36.00;1.00;;;;;;5065669;28;20557;-65
2023/05/05 07:17:40;;;;;;;13.27;8.00;;;34.30;1.00;;;;;;5071565;28;20461;-64
2023/05/05 07:20:08;;;;;;;10.77;7.63;;;32.90;1.00;;;;;;5069170;28;20467;-64
2023/05/05 07:22:36;;;;;;;8.47;6.80;;;32.10;1.00;;;;;;5065301;28;20507;-64
2023/05/05 07:25:03;;;;;;;25.00;11.83;;;31.30;1.00;;;;;;5068918;28;20963;-64
2023/05/05 07:27:30;;;;;;;10.80;6.37;;;30.50;1.00;;;;;;5071333;28;21019;-64
2023/05/05 07:29:57;;;;;;;11.00;8.20;;;29.50;1.00;;;;;;5066626;28;20477;-64
2023/05/05 07:32:24;;;;;;;9.93;6.73;;;28.80;1.00;;;;;;5067609;28;20480;-66
2023/05/05 07:34:51;;;;;;;10.30;7.03;;;28.20;1.00;;;;;;5066741;28;20559;-64
2023/05/05 07:37:18;;;;;;;12.47;7.57;;;27.70;1.00;;;;;;5072880;28;20501;-65
2023/05/05 07:39:47;;;;;;;10.87;7.30;;;27.70;1.00;;;;;;5066521;28;20457;-64
2023/05/05 07:42:14;;;;;;;10.17;7.60;;;28.00;1.00;;;;;;5072550;28;20592;-64
2023/05/05 07:44:41;;;;;;;9.43;7.60;;;27.60;1.00;;;;;;5060199;28;20453;-65
2023/05/05 07:47:07;;;;;;;10.17;7.57;;;27.10;1.00;;;;;;5066073;28;20509;-64
2023/05/05 07:49:34;;;;;;;12.70;7.30;;;26.50;1.00;;;;;;5064812;28;20477;-64
2023/05/05 07:52:01;;;;;;;9.47;7.00;;;26.10;2.40;;;;;;5067500;28;20563;-63
2023/05/05 07:54:28;;;;;;;13.60;7.10;;;26.00;2.40;;;;;;5064670;28;20473;-66
2023/05/05 07:56:56;;;;;;;10.30;7.10;;;26.00;2.60;;;;;;5064967;28;20480;-66
2023/05/05 07:59:23;;;;;;;10.70;6.93;;;26.30;2.20;;;;;;5063303;28;20469;-65
2023/05/05 08:01:50;;;;;;;9.47;6.40;;;26.50;2.20;;;;;;5068493;28;20480;-65
2023/05/05 08:04:16;;;;;;;9.23;7.07;;;26.70;1.90;;;;;;5069188;28;20957;-65
2023/05/05 08:06:43;;;;;;;9.53;6.23;;;27.00;1.50;;;;;;5064941;28;20491;-65
2023/05/05 08:09:10;;;;;;;8.70;6.73;;;26.90;1.10;;;;;;5063548;28;20488;-65
2023/05/05 08:11:36;;;;;;;10.10;6.50;;;26.80;1.00;;;;;;5070161;28;20906;-65
2023/05/05 08:14:04;;;;;;;10.30;5.93;;;26.80;1.20;;;;;;5067045;28;20884;-65
2023/05/05 08:16:31;;;;;;;10.93;7.37;;;27.10;1.90;;;;;;5065167;28;20464;-65
2023/05/05 08:18:58;;;;;;;13.17;6.67;;;27.30;1.70;;;;;;5066730;28;20469;-65
2023/05/05 08:21:24;;;;;;;11.23;5.90;;;27.60;1.00;;;;;;5066264;28;20477;-65
2023/05/05 08:23:51;;;;;;;9.40;7.00;;;28.70;1.00;;;;;;5057706;28;20466;-67
2023/05/05 08:26:18;;;;;;;10.33;6.63;;;29.30;1.00;;;;;;5063913;28;20552;-66
2023/05/05 08:28:45;;;;;;;13.00;5.20;;;30.90;1.00;;;;;;5061881;28;20461;-65
2023/05/05 08:31:13;;;;;;;8.13;5.33;;;32.50;1.00;;;;;;5063947;28;20478;-66
2023/05/05 08:33:40;;;;;;;7.17;5.23;;;34.80;1.00;;;;;;5059840;28;20479;-67
2023/05/05 08:36:07;;;;;;;7.13;5.23;;;37.30;1.00;;;;;;5062190;28;20472;-67
2023/05/05 08:38:34;;;;;;;9.90;5.50;;;39.50;1.00;;;;;;5057966;28;20487;-67
2023/05/05 08:41:01;;;;;;;6.50;4.70;;;40.90;1.00;;;;;;5063242;28;20464;-68
2023/05/05 08:43:28;;;;;;;8.10;5.40;;;42.20;1.00;;;;;;5061723;28;20462;-66
2023/05/05 08:45:55;;;;;;;8.33;5.00;;;42.30;1.00;;;;;;5064364;28;20984;-68
2023/05/05 08:48:27;;;;;;;7.50;5.00;;;40.70;1.00;;;;;;5060977;28;20474;-67
2023/05/05 08:50:58;;;;;;;8.63;4.60;;;39.00;1.00;;;;;;5056162;28;20477;-67
2023/05/05 08:53:35;;;;;;;11.83;4.77;;;37.60;1.00;;;;;;5064289;28;20469;-66
2023/05/05 08:56:03;;;;;;;5.63;4.30;;;36.40;1.00;;;;;;5058263;28;20473;-65
2023/05/05 08:58:31;;;;;;;6.73;5.10;;;35.30;1.00;;;;;;5063799;28;20477;-64
2023/05/05 09:01:00;;;;;;;6.80;5.27;;;34.40;1.00;;;;;;5061620;28;20486;-64
2023/05/05 09:03:29;;;;;;;10.40;5.33;;;33.50;1.00;;;;;;5058616;28;20465;-64
2023/05/05 09:05:56;;;;;;;10.50;5.67;;;32.70;1.00;;;;;;5060762;28;20483;-64
2023/05/05 09:08:24;;;;;;;9.27;5.17;;;32.40;1.00;;;;;;5057291;28;20496;-65
2023/05/05 09:10:51;;;;;;;8.47;5.10;;;32.30;1.00;;;;;;5058179;28;20564;-64
2023/05/05 09:13:18;;;;;;;9.60;5.00;;;32.30;1.00;;;;;;5070132;28;20492;-64
2023/05/05 09:15:45;;;;;;;9.10;4.40;;;33.00;1.00;;;;;;5064516;28;20953;-64
2023/05/05 09:18:12;;;;;;;5.70;3.47;;;33.30;1.00;;;;;;5066369;28;20535;-64
2023/05/05 09:20:41;;;;;;;6.83;3.80;;;33.80;1.00;;;;;;5064022;28;20460;-64
2023/05/05 09:23:09;;;;;;;5.50;3.53;;;33.30;1.00;;;;;;5068223;28;20511;-64
2023/05/05 09:25:37;;;;;;;7.23;3.60;;;32.60;1.00;;;;;;5075919;28;20468;-64
2023/05/05 09:28:09;;;;;;;7.33;4.50;;;32.20;1.00;;;;;;5078957;28;20549;-64
2023/05/05 09:30:36;;;;;;;6.47;4.30;;;32.00;1.00;;;;;;5079493;28;20487;-64
2023/05/05 09:33:03;;;;;;;8.30;4.63;;;32.10;1.00;;;;;;5067120;28;20507;-64
2023/05/05 09:35:49;;;;;;;7.10;5.40;;;32.10;1.00;;;;;;5067833;28;20473;-64
2023/05/05 09:38:16;;;;;;;7.50;4.60;;;32.50;1.00;;;;;;5071257;28;20847;-64
2023/05/05 09:40:47;;;;;;;7.07;4.70;;;33.00;1.00;;;;;;5073233;28;20457;-64
2023/05/05 09:43:14;;;;;;;7.40;4.63;;;33.90;1.00;;;;;;5067955;28;20497;-64
2023/05/05 09:45:41;;;;;;;7.40;4.03;;;34.60;1.00;;;;;;5068022;28;20498;-64
2023/05/05 09:48:08;;;;;;;6.50;4.57;;;35.50;1.00;;;;;;5073438;28;20506;-64
2023/05/05 09:50:43;;;;;;;6.13;4.57;;;37.00;1.00;;;;;;5069873;28;20480;-64
2023/05/05 09:53:11;;;;;;;8.57;4.93;;;38.80;1.00;;;;;;5071944;28;20511;-64
2023/05/05 09:55:38;;;;;;;7.30;4.00;;;40.50;1.00;;;;;;5070105;28;20507;-64
2023/05/05 09:58:18;;;;;;;6.37;4.23;;;41.50;1.00;;;;;;5074206;28;20913;-64
2023/05/05 10:00:44;;;;;;;6.63;4.57;;;42.10;1.00;;;;;;5073825;28;20461;-64
2023/05/05 10:03:11;;;;;;;6.17;4.27;;;42.70;1.00;;;;;;5071919;28;20492;-64
2023/05/05 10:05:49;;;;;;;7.33;3.80;;;43.00;1.00;;;;;;5069289;28;20453;-64
2023/05/05 10:08:18;;;;;;;6.63;3.90;;;43.00;1.00;;;;;;5067940;28;20458;-64
2023/05/05 10:10:54;;;;;;;8.70;4.70;;;42.70;1.00;;;;;;5071606;28;20477;-64
2023/05/05 10:13:22;;;;;;;7.80;4.63;;;41.90;1.00;;;;;;5071320;28;20928;-64
2023/05/05 10:15:50;;;;;;;7.70;3.80;;;40.80;1.00;;;;;;5065512;28;20458;-64
2023/05/05 10:18:21;;;;;;;5.50;3.53;;;39.60;1.00;;;;;;5073434;28;20474;-64
2023/05/05 10:20:53;;;;;;;4.73;3.10;;;38.50;1.00;;;;;;5072902;28;20461;-64
2023/05/05 10:23:24;;;;;;;5.03;2.83;;;37.50;1.00;;;;;;5070924;28;20495;-64
2023/05/05 10:25:55;;;;;;;5.60;2.50;;;36.70;1.00;;;;;;5067711;28;20950;-65
2023/05/05 10:28:31;;;;;;;6.17;3.00;;;36.00;1.00;;;;;;5073892;28;20461;-64
2023/05/05 10:31:00;;;;;;;4.00;2.10;;;35.30;1.00;;;;;;5070012;28;20472;-64
2023/05/05 10:33:34;;;;;;;5.83;2.50;;;34.60;1.00;;;;;;5071481;28;20461;-64
2023/05/05 10:36:04;;;;;;;5.00;2.60;;;34.20;1.00;;;;;;5073889;28;20468;-64
2023/05/05 10:38:32;;;;;;;5.00;2.90;;;33.70;1.00;;;;;;5069106;28;20457;-64
2023/05/05 10:41:01;;;;;;;6.87;2.50;;;33.30;1.00;;;;;;5072512;28;20534;-64
2023/05/05 10:43:29;;;;;;;11.10;2.67;;;32.90;1.00;;;;;;5065162;28;20450;-64
2023/05/05 10:45:56;;;;;;;6.43;2.83;;;32.70;1.00;;;;;;5071180;28;20468;-64
2023/05/05 10:48:30;;;;;;;12.07;3.40;;;32.40;1.00;;;;;;5071871;28;21679;-64
2023/05/05 10:51:07;;;;;;;9.23;3.30;;;31.90;1.00;;;;;;5070747;28;20483;-64
2023/05/05 10:53:44;;;;;;;5.43;2.80;;;31.60;1.00;;;;;;5062745;28;20472;-64
2023/05/05 10:56:18;;;;;;;7.00;3.63;;;31.40;1.00;;;;;;5066955;28;20466;-64
2023/05/05 10:58:45;;;;;;;5.17;3.03;;;31.10;1.00;;;;;;5071864;28;20464;-64
2023/05/05 11:01:27;;;;;;;5.90;2.77;;;30.80;1.00;;;;;;5070218;28;20477;-64
2023/05/05 11:04:16;;;;;;;6.40;2.90;;;30.60;1.00;;;;;;5071819;28;20472;-64
2023/05/05 11:07:16;;;;;;;5.50;2.73;;;30.40;1.00;;;;;;5073228;28;20469;-64
2023/05/05 11:09:56;;;;;;;4.87;2.60;;;30.30;1.00;;;;;;5064569;28;20466;-64
2023/05/05 11:12:23;;;;;;;6.63;3.37;;;30.20;1.00;;;;;;5070637;28;20484;-64
2023/05/05 11:15:23;;;;;;;5.60;3.00;;;30.10;1.00;;;;;;5077711;28;20514;-63
2023/05/05 11:17:50;;;;;;;6.70;3.57;;;30.10;1.00;;;;;;5066665;28;20558;-64
2023/05/05 11:20:17;;;;;;;5.13;3.23;;;30.10;1.00;;;;;;5070054;28;20941;-64
2023/05/05 11:23:20;;;;;;;5.60;3.10;;;30.00;1.00;;;;;;5066572;28;20495;-63
2023/05/05 11:25:50;;;;;;;5.30;2.83;;;30.00;1.00;;;;;;5063894;28;20480;-64
2023/05/05 11:28:17;;;;;;;6.67;3.50;;;29.90;1.00;;;;;;5066989;28;20472;-64
2023/05/05 11:31:19;;;;;;;5.40;3.10;;;29.80;1.00;;;;;;5067535;28;20489;-64
2023/05/05 11:33:46;;;;;;;4.80;3.00;;;29.80;1.00;;;;;;5071247;28;20461;-64
2023/05/05 11:36:14;;;;;;;5.33;3.20;;;29.80;1.00;;;;;;5062664;28;20468;-63
2023/05/05 11:39:03;;;;;;;7.33;3.80;;;29.80;1.00;;;;;;5068318;28;20483;-64
2023/05/05 11:41:51;;;;;;;6.73;3.57;;;29.70;1.00;;;;;;5066399;28;20477;-64
2023/05/05 11:44:19;;;;;;;6.83;3.67;;;29.60;1.00;;;;;;5065747;28;20475;-63
2023/05/05 11:47:19;;;;;;;5.83;3.60;;;29.40;1.00;;;;;;5070568;28;20469;-63
2023/05/05 11:49:46;;;;;;;7.97;3.73;;;29.30;1.00;;;;;;5070392;28;21023;-64
2023/05/05 11:52:14;;;;;;;5.60;3.20;;;29.20;1.00;;;;;;5067425;28;20492;-64
2023/05/05 11:54:46;;;;;;;7.07;3.00;;;29.00;1.00;;;;;;5066534;28;20542;-64
2023/05/05 11:57:16;;;;;;;9.70;3.70;;;28.60;1.00;;;;;;5075714;28;20472;-64
2023/05/05 11:59:52;;;;;;;6.53;3.20;;;28.60;1.00;;;;;;5067138;28;20465;-64
2023/05/05 12:02:19;;;;;;;6.43;2.97;;;28.60;1.00;;;;;;5067572;28;20468;-64
2023/05/05 12:04:47;;;;;;;5.93;3.10;;;28.60;1.00;;;;;;5064816;28;20984;-64
2023/05/05 12:07:17;;;;;;;6.80;3.73;;;28.60;1.00;;;;;;5069351;28;20977;-64
2023/05/05 12:09:45;;;;;;;6.20;3.60;;;28.70;1.00;;;;;;5074646;28;20461;-64
2023/05/05 12:12:13;;;;;;;7.23;3.50;;;28.60;1.00;;;;;;5072996;28;20558;-64
2023/05/05 12:14:50;;;;;;;6.17;3.77;;;28.60;1.00;;;;;;5074895;28;20467;-64
2023/05/05 12:17:18;;;;;;;6.70;3.37;;;28.50;1.00;;;;;;5067505;28;22694;-64
2023/05/05 12:19:47;;;;;;;5.60;3.13;;;28.40;1.00;;;;;;5071681;28;20458;-64
2023/05/05 12:22:19;;;;;;;8.37;2.90;;;28.30;1.00;;;;;;5073457;28;20481;-64
2023/05/05 12:24:53;;;;;;;6.33;2.73;;;28.30;1.00;;;;;;5071414;28;20457;-64
2023/05/05 12:27:21;;;;;;;6.73;3.30;;;28.20;1.00;;;;;;5069999;28;20481;-64
2023/05/05 12:29:48;;;;;;;6.10;3.47;;;28.20;1.00;;;;;;5070120;28;20465;-64
2023/05/05 12:32:25;;;;;;;8.73;3.60;;;28.20;1.00;;;;;;5069833;28;20485;-64
2023/05/05 12:34:54;;;;;;;5.67;2.90;;;28.20;1.00;;;;;;5065569;28;20486;-64
2023/05/05 12:37:22;;;;;;;5.80;2.43;;;28.10;1.00;;;;;;5079557;28;20527;-64
2023/05/05 12:39:49;;;;;;;6.30;3.00;;;28.10;1.00;;;;;;5070187;28;20461;-64
2023/05/05 12:42:17;;;;;;;8.30;4.23;;;28.10;1.00;;;;;;5064110;28;20485;-64
2023/05/05 12:44:45;;;;;;;9.20;3.80;;;28.10;1.00;;;;;;5065447;28;20464;-64
2023/05/05 12:47:13;;;;;;;10.53;3.97;;;28.00;1.00;;;;;;5062515;28;20556;-65
2023/05/05 12:49:50;;;;;;;6.30;3.67;;;27.90;1.00;;;;;;5067449;28;20464;-64
2023/05/05 12:52:18;;;;;;;8.07;3.90;;;27.80;1.00;;;;;;5062851;28;20981;-64